createdAt,value
2019-04-25T00:01:11.652Z,100318.14
2019-04-25T00:03:43.653Z,100328.00
2019-04-25T00:06:14.702Z,100333.30
2019-04-25T00:08:45.240Z,100333.69
2019-04-25T00:11:15.336Z,100316.23
2019-04-25T00:13:45.645Z,100338.34
2019-04-25T00:16:17.594Z,100334.30
2019-04-25T00:18:47.442Z,100335.87
2019-04-25T00:21:18.885Z,100337.06
2019-04-25T00:23:51.589Z,100335.30
2019-04-25T00:26:23.100Z,100335.20
2019-04-25T00:28:53.481Z,100348.86
2019-04-25T00:31:24.762Z,100343.52
2019-04-25T00:33:54.878Z,100345.91
2019-04-25T00:36:24.831Z,100355.61
2019-04-25T00:38:54.640Z,100360.91
2019-04-25T00:41:26.892Z,100352.97
2019-04-25T00:43:56.720Z,100356.72
2019-04-25T00:46:26.468Z,100368.77
2019-04-25T00:48:56.227Z,100391.48
2019-04-25T00:51:27.206Z,100396.55
2019-04-25T00:53:57.069Z,100398.42
2019-04-25T00:56:26.884Z,100398.83
2019-04-25T00:59:14.610Z,100413.55
2019-04-25T01:01:46.830Z,100410.63
2019-04-25T01:04:18.899Z,100421.78
2019-04-25T01:06:49.615Z,100426.55
2019-04-25T01:09:20.243Z,100422.45
2019-04-25T01:11:50.069Z,100421.96
2019-04-25T01:14:21.731Z,100417.51
2019-04-25T01:16:53.031Z,100427.95
2019-04-25T01:19:23.542Z,100428.73
2019-04-25T01:21:54.930Z,100428.73
2019-04-25T01:24:25.405Z,100429.03
2019-04-25T01:26:55.892Z,100425.88
2019-04-25T01:29:25.747Z,100423.88
2019-04-25T01:31:56.374Z,100419.42
2019-04-25T01:34:30.959Z,100414.61
2019-04-25T01:37:04.102Z,100409.16
2019-04-25T01:39:47.721Z,100419.08
2019-04-25T01:42:34.489Z,100413.17
2019-04-25T01:45:06.593Z,100420.86
2019-04-25T01:47:36.426Z,100430.00
2019-04-25T01:50:07.514Z,100431.86
2019-04-25T01:52:37.668Z,100426.03
2019-04-25T01:55:08.125Z,100427.17
2019-04-25T01:57:37.923Z,100416.41
2019-04-25T02:00:10.092Z,100409.50
2019-04-25T02:02:40.060Z,100409.86
2019-04-25T02:05:10.128Z,100409.72
2019-04-25T02:07:40.135Z,100403.18
2019-04-25T02:10:11.460Z,100397.58
2019-04-25T02:12:45.471Z,100390.52
2019-04-25T02:15:17.036Z,100398.70
2019-04-25T02:17:46.877Z,100393.25
2019-04-25T02:20:16.798Z,100391.16
2019-04-25T02:22:46.557Z,100376.79
2019-04-25T02:25:16.486Z,100387.72
2019-04-25T02:27:46.291Z,100397.92
2019-04-25T02:30:17.671Z,100381.75
2019-04-25T02:32:47.540Z,100383.05
2019-04-25T02:35:17.548Z,100401.58
2019-04-25T02:37:47.516Z,100393.34
2019-04-25T02:40:20.663Z,100396.20
2019-04-25T02:42:50.547Z,100390.23
2019-04-25T02:45:37.387Z,100398.58
2019-04-25T02:48:18.265Z,100401.80
2019-04-25T02:51:10.660Z,100424.94
2019-04-25T02:53:45.028Z,100442.33
2019-04-25T02:56:30.236Z,100447.43
2019-04-25T02:58:46.867Z,100446.72
2019-04-25T03:01:22.641Z,100460.36
2019-04-25T03:03:50.027Z,100465.42
2019-04-25T03:06:19.924Z,100471.08
2019-04-25T03:08:49.792Z,100481.55
2019-04-25T03:11:19.812Z,100487.16
2019-04-25T03:13:49.724Z,100484.53
2019-04-25T03:16:21.163Z,100472.66
2019-04-25T03:19:09.023Z,100479.77
2019-04-25T03:21:45.203Z,100491.77
2019-04-25T03:24:16.714Z,100502.57
2019-04-25T03:26:46.970Z,100503.21
2019-04-25T03:29:16.815Z,100524.46
2019-04-25T03:31:46.735Z,100543.77
2019-04-25T03:34:20.220Z,100550.19
2019-04-25T03:36:48.151Z,100550.40
2019-04-25T03:39:18.017Z,100551.68
2019-04-25T03:41:47.810Z,100546.30
2019-04-25T03:44:17.627Z,100555.50
2019-04-25T03:46:47.332Z,100560.48
2019-04-25T03:49:17.324Z,100576.97
2019-04-25T03:51:47.275Z,100578.06
2019-04-25T03:54:17.141Z,100579.16
2019-04-25T03:56:53.651Z,100575.55
2019-04-25T03:59:18.570Z,100577.06
2019-04-25T04:01:48.426Z,100582.89
2019-04-25T04:04:18.275Z,100579.70
2019-04-25T04:06:48.143Z,100583.70
2019-04-25T04:09:17.883Z,100586.53
2019-04-25T04:11:47.738Z,100589.06
2019-04-25T04:14:17.750Z,100589.36
2019-04-25T04:17:06.721Z,100601.52
2019-04-25T04:19:38.612Z,100601.36
2019-04-25T04:22:16.259Z,100603.09
2019-04-25T04:24:47.803Z,100599.88
2019-04-25T04:27:17.697Z,100608.45
2019-04-25T04:29:47.519Z,100616.41
2019-04-25T04:32:17.437Z,100624.91
2019-04-25T04:34:47.198Z,100629.41
2019-04-25T04:37:17.552Z,100628.90
2019-04-25T04:39:47.476Z,100631.27
2019-04-25T04:42:17.925Z,100617.16
2019-04-25T04:44:47.895Z,100641.80
2019-04-25T04:47:18.545Z,100641.58
2019-04-25T04:49:48.379Z,100644.05
2019-04-25T04:52:19.350Z,100655.32
2019-04-25T04:54:49.290Z,100651.24
2019-04-25T04:57:28.843Z,100658.58
2019-04-25T04:59:50.773Z,100665.66
2019-04-25T05:02:23.540Z,100664.66
2019-04-25T05:05:04.432Z,100676.92
2019-04-25T05:07:38.859Z,100674.94
2019-04-25T05:10:08.815Z,100683.08
2019-04-25T05:12:38.560Z,100691.83
2019-04-25T05:15:09.368Z,100695.34
2019-04-25T05:17:39.140Z,100695.18
2019-04-25T05:20:09.231Z,100702.36
2019-04-25T05:22:39.203Z,100704.09
2019-04-25T05:25:09.257Z,100708.22
2019-04-25T05:27:56.922Z,100705.97
2019-04-25T05:30:15.327Z,100698.94
2019-04-25T05:32:44.245Z,100708.37
2019-04-25T05:35:15.311Z,100713.75
2019-04-25T05:37:46.074Z,100721.92
2019-04-25T05:40:17.105Z,100717.88
2019-04-25T05:42:48.837Z,100710.20
2019-04-25T05:45:21.269Z,100716.05
2019-04-25T05:47:51.236Z,100721.96
2019-04-25T05:50:22.526Z,100719.62
2019-04-25T05:52:54.145Z,100724.02
2019-04-25T05:55:25.166Z,100727.18
2019-04-25T05:57:55.359Z,100729.93
2019-04-25T06:00:26.055Z,100737.17
2019-04-25T06:02:56.691Z,100733.58
2019-04-25T06:05:30.058Z,100734.41
2019-04-25T06:07:59.989Z,100745.74
2019-04-25T06:10:37.464Z,100751.55
2019-04-25T06:13:26.402Z,100768.42
2019-04-25T06:15:58.144Z,100770.47
2019-04-25T06:18:38.591Z,100754.04
2019-04-25T06:21:10.088Z,100747.19
2019-04-25T06:23:50.852Z,100745.38
2019-04-25T06:26:32.818Z,100747.55
2019-04-25T06:28:59.042Z,100748.86
2019-04-25T06:31:26.556Z,100752.12
2019-04-25T06:33:55.589Z,100762.59
2019-04-25T06:36:25.490Z,100762.59
2019-04-25T06:38:55.197Z,100765.39
2019-04-25T06:41:26.165Z,100775.09
2019-04-25T06:43:58.404Z,100780.08
2019-04-25T06:46:33.845Z,100787.92
2019-04-25T06:49:17.219Z,100805.96
2019-04-25T06:51:51.242Z,100803.53
2019-04-25T06:54:21.992Z,100814.28
2019-04-25T06:56:53.537Z,100826.74
2019-04-25T06:59:25.914Z,100826.74
2019-04-25T07:01:56.285Z,100830.05
2019-04-25T07:04:27.088Z,100833.66
2019-04-25T07:07:09.693Z,100828.86
2019-04-25T07:09:30.053Z,100829.92
2019-04-25T07:12:01.141Z,100825.17
2019-04-25T07:14:31.556Z,100832.23
2019-04-25T07:17:01.622Z,100827.31
2019-04-25T07:19:32.108Z,100841.89
2019-04-25T07:22:02.030Z,100836.91
2019-04-25T07:24:31.837Z,100838.00
2019-04-25T07:27:19.674Z,100838.22
2019-04-25T07:30:00.149Z,100844.47
2019-04-25T07:32:33.057Z,100842.24
2019-04-25T07:35:04.432Z,100850.16
2019-04-25T07:37:37.120Z,100849.35
2019-04-25T07:40:08.129Z,100844.25
2019-04-25T07:42:38.115Z,100846.78
2019-04-25T07:45:09.810Z,100855.41
2019-04-25T07:47:40.154Z,100858.02
2019-04-25T07:50:10.387Z,100858.05
2019-04-25T07:52:40.318Z,100850.25
2019-04-25T07:55:10.435Z,100847.52
2019-04-25T07:57:40.295Z,100851.58
2019-04-25T08:00:14.977Z,100853.84
2019-04-25T08:02:44.888Z,100853.62
2019-04-25T08:05:18.178Z,100857.23
2019-04-25T08:07:48.171Z,100863.36
2019-04-25T08:10:19.062Z,100856.77
2019-04-25T08:12:48.955Z,100864.74
2019-04-25T08:15:28.254Z,100861.91
2019-04-25T08:18:00.603Z,100861.19
2019-04-25T08:20:30.591Z,100863.78
2019-04-25T08:23:01.869Z,100854.01
2019-04-25T08:25:33.781Z,100862.97
2019-04-25T08:28:03.845Z,100864.45
2019-04-25T08:30:35.317Z,100866.78
2019-04-25T08:33:05.863Z,100866.98
2019-04-25T08:35:36.511Z,100861.39
2019-04-25T08:38:07.642Z,100862.48
2019-04-25T08:40:38.923Z,100858.95
2019-04-25T08:43:08.913Z,100859.94
2019-04-25T08:45:39.704Z,100862.02
2019-04-25T08:48:09.691Z,100862.16
2019-04-25T08:50:44.566Z,100863.95
2019-04-25T08:53:16.140Z,100864.02
2019-04-25T08:55:56.865Z,100866.61
2019-04-25T08:58:41.235Z,100866.38
2019-04-25T09:01:21.380Z,100862.56
2019-04-25T09:03:53.908Z,100866.14
2019-04-25T09:06:24.358Z,100870.23
2019-04-25T09:08:54.313Z,100871.25
2019-04-25T09:11:24.501Z,100870.87
2019-04-25T09:13:54.443Z,100866.80
2019-04-25T09:16:24.316Z,100862.27
2019-04-25T09:18:54.156Z,100860.88
2019-04-25T09:21:24.061Z,100862.23
2019-04-25T09:23:53.973Z,100858.86
2019-04-25T09:26:24.189Z,100854.52
2019-04-25T09:28:54.186Z,100854.91
2019-04-25T09:31:24.214Z,100846.89
2019-04-25T09:33:55.607Z,100858.96
2019-04-25T09:36:25.536Z,100848.09
2019-04-25T09:38:57.056Z,100854.47
2019-04-25T09:41:26.932Z,100847.30
2019-04-25T09:43:58.451Z,100856.41
2019-04-25T09:46:29.916Z,100842.12
2019-04-25T09:49:04.329Z,100844.53
2019-04-25T09:51:39.701Z,100863.80
2019-04-25T09:54:15.192Z,100868.97
2019-04-25T09:56:47.194Z,100863.64
2019-04-25T09:59:27.158Z,100866.95
2019-04-25T10:01:50.525Z,100865.92
2019-04-25T10:04:22.874Z,100864.75
2019-04-25T10:06:53.476Z,100850.40
2019-04-25T10:09:23.987Z,100855.88
2019-04-25T10:11:54.710Z,100834.72
2019-04-25T10:14:44.793Z,100847.11
2019-04-25T10:17:14.346Z,100856.10
2019-04-25T10:19:44.217Z,100855.38
2019-04-25T10:22:14.116Z,100854.88
2019-04-25T10:24:56.456Z,100847.30
2019-04-25T10:27:15.644Z,100845.56
2019-04-25T10:29:50.920Z,100833.48
2019-04-25T10:32:17.036Z,100831.05
2019-04-25T10:34:46.814Z,100831.61
2019-04-25T10:37:17.062Z,100840.91
2019-04-25T10:39:46.998Z,100840.05
2019-04-25T10:42:16.794Z,100846.05
2019-04-25T10:44:47.139Z,100847.91
2019-04-25T10:47:18.269Z,100847.31
2019-04-25T10:49:48.304Z,100842.16
2019-04-25T10:52:18.314Z,100855.38
2019-04-25T10:54:48.141Z,100861.36
2019-04-25T10:57:18.133Z,100856.56
2019-04-25T11:00:00.953Z,100867.77
2019-04-25T11:02:20.118Z,100865.23
2019-04-25T11:04:51.771Z,100855.94
2019-04-25T11:07:23.384Z,100854.37
2019-04-25T11:09:53.923Z,100853.00
2019-04-25T11:12:25.134Z,100855.92
2019-04-25T11:14:56.096Z,100857.48
2019-04-25T11:17:26.244Z,100857.48
2019-04-25T11:19:56.175Z,100863.23
2019-04-25T11:22:26.162Z,100868.00
2019-04-25T11:24:56.093Z,100868.00
2019-04-25T11:27:25.929Z,100866.92
2019-04-25T11:30:08.472Z,100875.62
2019-04-25T11:32:28.810Z,100863.59
2019-04-25T11:34:59.626Z,100863.59
2019-04-25T11:37:31.174Z,100876.05
2019-04-25T11:40:05.417Z,100867.65
2019-04-25T11:42:35.255Z,100866.59
2019-04-25T11:45:07.310Z,100872.41
2019-04-25T11:47:37.131Z,100872.41
2019-04-25T11:50:08.902Z,100863.20
2019-04-25T11:52:38.903Z,100867.66
2019-04-25T11:55:09.461Z,100857.89
2019-04-25T11:57:39.325Z,100854.45
2019-04-25T12:00:21.640Z,100853.96
2019-04-25T12:02:41.690Z,100857.95
2019-04-25T12:05:11.596Z,100858.67
2019-04-25T12:07:41.445Z,100863.81
2019-04-25T12:10:11.368Z,100859.27
2019-04-25T12:12:41.200Z,100859.61
2019-04-25T12:15:11.066Z,100856.86
2019-04-25T12:17:40.826Z,100858.18
2019-04-25T12:20:11.108Z,100861.91
2019-04-25T12:22:41.045Z,100861.91
2019-04-25T12:25:11.160Z,100855.19
2019-04-25T12:27:40.948Z,100849.88
2019-04-25T12:30:11.186Z,100860.92
2019-04-25T12:32:41.012Z,100856.85
2019-04-25T12:35:10.914Z,100863.25
2019-04-25T12:37:40.930Z,100852.46
2019-04-25T12:40:10.831Z,100851.24
2019-04-25T12:42:40.937Z,100855.64
2019-04-25T12:45:14.183Z,100850.84
2019-04-25T12:47:59.202Z,100863.09
2019-04-25T12:50:30.492Z,100872.14
2019-04-25T12:53:00.312Z,100869.40
2019-04-25T12:55:30.340Z,100863.31
2019-04-25T12:58:00.439Z,100863.12
2019-04-25T13:00:30.579Z,100863.12
2019-04-25T13:03:06.506Z,100865.55
2019-04-25T13:05:32.286Z,100865.55
2019-04-25T13:08:06.601Z,100852.88
2019-04-25T13:10:37.893Z,100851.45
2019-04-25T13:13:08.399Z,100855.65
2019-04-25T13:15:39.198Z,100857.53
2019-04-25T13:18:08.970Z,100866.76
2019-04-25T13:20:38.838Z,100870.92
2019-04-25T13:23:08.833Z,100862.89
2019-04-25T13:25:38.658Z,100870.97
2019-04-25T13:28:16.128Z,100869.59
2019-04-25T13:30:59.648Z,100862.15
2019-04-25T13:33:20.877Z,100866.52
2019-04-25T13:36:02.104Z,100854.48
2019-04-25T13:38:31.952Z,100859.91
2019-04-25T13:41:01.942Z,100847.85
2019-04-25T13:43:31.890Z,100853.05
2019-04-25T13:46:02.029Z,100852.83
2019-04-25T13:48:32.354Z,100853.14
2019-04-25T13:51:04.112Z,100855.09
2019-04-25T13:53:35.618Z,100846.77
2019-04-25T13:56:05.740Z,100850.91
2019-04-25T13:58:37.862Z,100847.23
2019-04-25T14:01:13.057Z,100851.31
2019-04-25T14:03:41.480Z,100848.70
2019-04-25T14:06:13.626Z,100858.66
2019-04-25T14:08:43.636Z,100855.64
2019-04-25T14:11:14.051Z,100844.95
2019-04-25T14:13:44.040Z,100844.10
2019-04-25T14:16:22.557Z,100834.52
2019-04-25T14:19:11.243Z,100833.40
2019-04-25T14:21:41.143Z,100832.19
2019-04-25T14:24:20.306Z,100832.60
2019-04-25T14:26:42.359Z,100829.92
2019-04-25T14:29:12.187Z,100831.55
2019-04-25T14:31:46.778Z,100838.06
2019-04-25T14:34:13.583Z,100836.89
2019-04-25T14:36:44.266Z,100827.19
2019-04-25T14:39:15.860Z,100832.39
2019-04-25T14:41:45.702Z,100830.48
2019-04-25T14:44:15.513Z,100830.47
2019-04-25T14:46:45.373Z,100832.31
2019-04-25T14:49:15.155Z,100830.17
2019-04-25T14:51:44.969Z,100815.63
2019-04-25T14:54:22.959Z,100816.04
2019-04-25T14:56:54.512Z,100825.86
2019-04-25T14:59:26.458Z,100824.52
2019-04-25T15:01:56.720Z,100829.80
2019-04-25T15:04:26.532Z,100838.14
2019-04-25T15:06:56.434Z,100828.62
2019-04-25T15:09:26.818Z,100826.31
2019-04-25T15:11:56.772Z,100821.75
2019-04-25T15:14:26.996Z,100822.62
2019-04-25T15:16:56.801Z,100818.58
2019-04-25T15:19:27.523Z,100821.03
2019-04-25T15:21:57.294Z,100815.23
2019-04-25T15:24:27.107Z,100817.75
2019-04-25T15:26:56.931Z,100806.56
2019-04-25T15:29:26.800Z,100808.40
2019-04-25T15:31:56.691Z,100811.13
2019-04-25T15:34:28.426Z,100809.61
2019-04-25T15:37:14.943Z,100812.47
2019-04-25T15:39:46.374Z,100814.27
2019-04-25T15:42:27.376Z,100814.91
2019-04-25T15:45:05.252Z,100810.45
2019-04-25T15:47:34.982Z,100804.88
2019-04-25T15:50:06.498Z,100813.14
2019-04-25T15:52:36.604Z,100819.05
2019-04-25T15:55:07.959Z,100807.20
2019-04-25T15:57:38.367Z,100810.27
2019-04-25T16:00:10.791Z,100809.45
2019-04-25T16:02:41.150Z,100802.52
2019-04-25T16:05:11.137Z,100808.89
2019-04-25T16:07:40.929Z,100813.97
2019-04-25T16:10:11.122Z,100801.01
2019-04-25T16:12:40.977Z,100800.73
2019-04-25T16:15:10.967Z,100805.63
2019-04-25T16:17:40.888Z,100792.55
2019-04-25T16:20:10.787Z,100792.55
2019-04-25T16:22:41.377Z,100805.12
2019-04-25T16:25:11.323Z,100806.09
2019-04-25T16:27:41.139Z,100804.78
2019-04-25T16:30:11.481Z,100803.03
2019-04-25T16:32:41.446Z,100806.34
2019-04-25T16:35:11.369Z,100808.40
2019-04-25T16:37:41.394Z,100808.48
2019-04-25T16:40:12.179Z,100801.68
2019-04-25T16:42:42.006Z,100803.91
2019-04-25T16:45:12.070Z,100798.88
2019-04-25T16:47:41.955Z,100794.85
2019-04-25T16:50:12.848Z,100797.73
2019-04-25T16:52:42.746Z,100793.05
2019-04-25T16:55:12.976Z,100792.20
2019-04-25T16:57:42.867Z,100795.52
2019-04-25T17:00:32.103Z,100797.27
2019-04-25T17:03:02.148Z,100795.80
2019-04-25T17:05:32.453Z,100814.25
2019-04-25T17:08:02.284Z,100793.60
2019-04-25T17:10:32.836Z,100803.39
2019-04-25T17:13:02.819Z,100800.78
2019-04-25T17:15:34.344Z,100794.08
2019-04-25T17:18:22.073Z,100788.91
2019-04-25T17:21:00.931Z,100788.91
2019-04-25T17:23:31.193Z,100789.08
2019-04-25T17:26:01.491Z,100786.37
2019-04-25T17:28:33.014Z,100800.14
2019-04-25T17:31:07.636Z,100789.87
2019-04-25T17:33:44.725Z,100790.75
2019-04-25T17:36:16.125Z,100786.16
2019-04-25T17:38:47.760Z,100786.16
2019-04-25T17:41:17.574Z,100789.91
2019-04-25T17:43:47.413Z,100789.17
2019-04-25T17:46:18.821Z,100792.15
2019-04-25T17:48:48.718Z,100799.11
2019-04-25T17:51:18.774Z,100797.45
2019-04-25T17:53:48.633Z,100796.87
2019-04-25T17:56:18.858Z,100792.83
2019-04-25T17:58:49.081Z,100797.50
2019-04-25T18:01:20.606Z,100797.50
2019-04-25T18:03:50.493Z,100810.92
2019-04-25T18:06:20.599Z,100810.83
2019-04-25T18:08:50.512Z,100813.97
2019-04-25T18:11:20.299Z,100816.59
2019-04-25T18:13:50.233Z,100816.59
2019-04-25T18:16:27.410Z,100813.50
2019-04-25T18:19:07.504Z,100824.72
2019-04-25T18:21:39.361Z,100826.59
2019-04-25T18:24:10.779Z,100824.52
2019-04-25T18:26:43.387Z,100824.88
2019-04-25T18:29:17.832Z,100826.23
2019-04-25T18:31:48.445Z,100836.91
2019-04-25T18:34:36.010Z,100836.91
2019-04-25T18:37:07.491Z,100839.30
2019-04-25T18:39:39.867Z,100844.11
2019-04-25T18:42:13.840Z,100841.66
2019-04-25T18:44:44.160Z,100840.42
2019-04-25T18:47:14.076Z,100846.59
2019-04-25T18:49:45.467Z,100856.04
2019-04-25T18:52:32.122Z,100859.36
2019-04-25T18:55:24.202Z,100861.27
2019-04-25T18:58:01.842Z,100864.09
2019-04-25T19:00:33.399Z,100870.03
2019-04-25T19:03:23.405Z,100868.90
2019-04-25T19:05:58.965Z,100864.63
2019-04-25T19:08:28.772Z,100870.52
2019-04-25T19:10:58.700Z,100874.42
2019-04-25T19:13:28.641Z,100867.13
2019-04-25T19:15:58.627Z,100865.56
2019-04-25T19:18:28.434Z,100866.23
2019-04-25T19:20:58.184Z,100862.88
2019-04-25T19:23:28.060Z,100859.82
2019-04-25T19:25:57.894Z,100859.52
2019-04-25T19:28:27.705Z,100856.55
2019-04-25T19:30:57.662Z,100863.56
2019-04-25T19:33:35.655Z,100878.03
2019-04-25T19:35:59.160Z,100868.28
2019-04-25T19:38:28.915Z,100864.74
2019-04-25T19:44:02.243Z,100863.24
2019-04-25T19:46:40.343Z,100872.81
2019-04-25T19:49:11.218Z,100864.35
2019-04-25T19:51:41.785Z,100870.11
2019-04-25T19:54:11.618Z,100860.91
2019-04-25T19:56:42.663Z,100861.35
2019-04-25T19:59:13.180Z,100857.40
2019-04-25T20:01:45.900Z,100857.34
2019-04-25T20:04:23.282Z,100857.29
2019-04-25T20:07:11.311Z,100850.08
2019-04-25T20:09:59.019Z,100856.37
2019-04-25T20:12:36.409Z,100858.98
2019-04-25T20:15:07.689Z,100858.80
2019-04-25T20:17:37.443Z,100849.14
2019-04-25T20:20:08.005Z,100848.20
2019-04-25T20:22:37.855Z,100853.66
2019-04-25T20:25:08.013Z,100852.60
2019-04-25T20:27:37.829Z,100847.45
2019-04-25T20:30:08.205Z,100851.10
2019-04-25T20:32:38.004Z,100848.36
2019-04-25T20:35:08.052Z,100852.34
2019-04-25T20:37:37.787Z,100843.61
2019-04-25T20:40:08.634Z,100842.27
2019-04-25T20:42:38.492Z,100849.61
2019-04-25T20:45:09.171Z,100844.19
2019-04-25T20:47:39.014Z,100832.02
2019-04-25T20:50:09.036Z,100834.47
2019-04-25T20:52:38.831Z,100837.05
2019-04-25T20:55:08.667Z,100830.06
2019-04-25T20:57:38.498Z,100833.66
2019-04-25T21:00:10.386Z,100839.81
2019-04-25T21:02:40.111Z,100828.09
2019-04-25T21:05:09.997Z,100841.02
2019-04-25T21:07:39.803Z,100840.28
2019-04-25T21:10:09.884Z,100841.94
2019-04-25T21:12:39.662Z,100837.28
2019-04-25T21:15:14.736Z,100834.02
2019-04-25T21:17:49.854Z,100831.62
2019-04-25T21:20:20.581Z,100835.33
2019-04-25T21:22:51.761Z,100831.20
2019-04-25T21:25:21.641Z,100836.74
2019-04-25T21:27:52.525Z,100824.58
2019-04-25T21:30:22.556Z,100822.27
2019-04-25T21:32:53.522Z,100835.53
2019-04-25T21:35:24.140Z,100828.96
2019-04-25T21:37:54.151Z,100831.65
2019-04-25T21:40:26.553Z,100838.11
2019-04-25T21:43:07.205Z,100836.62
2019-04-25T21:45:37.417Z,100835.66
2019-04-25T21:48:07.273Z,100833.58
2019-04-25T21:50:37.229Z,100827.88
2019-04-25T21:53:07.608Z,100841.99
2019-04-25T21:55:37.679Z,100830.83
2019-04-25T21:58:07.948Z,100839.90
2019-04-25T22:00:39.753Z,100830.70
2019-04-25T22:03:10.262Z,100828.56
2019-04-25T22:05:40.350Z,100827.99
2019-04-25T22:08:10.165Z,100823.23
2019-04-25T22:10:40.279Z,100816.84
2019-04-25T22:13:16.197Z,100810.56
2019-04-25T22:15:42.095Z,100802.58
2019-04-25T22:18:11.852Z,100803.83
2019-04-25T22:20:41.602Z,100795.73
2019-04-25T22:23:11.676Z,100798.35
2019-04-25T22:25:41.907Z,100791.00
2019-04-25T22:28:11.919Z,100788.03
2019-04-25T22:30:43.573Z,100790.14
2019-04-25T22:33:18.058Z,100784.09
2019-04-25T22:35:52.438Z,100781.91
2019-04-25T22:38:22.637Z,100783.44
2019-04-25T22:40:52.534Z,100776.95
2019-04-25T22:43:22.653Z,100781.56
2019-04-25T22:45:52.709Z,100775.59
2019-04-25T22:48:27.435Z,100776.00
2019-04-25T22:50:57.282Z,100769.52
2019-04-25T22:53:27.119Z,100766.20
2019-04-25T22:55:57.306Z,100773.34
2019-04-25T22:58:27.068Z,100774.14
2019-04-25T23:00:56.996Z,100771.89
2019-04-25T23:03:31.112Z,100769.42
2019-04-25T23:06:01.265Z,100763.13
2019-04-25T23:08:32.306Z,100769.45
2019-04-25T23:11:02.873Z,100761.22
2019-04-25T23:13:32.736Z,100755.69
2019-04-25T23:16:04.087Z,100762.24
2019-04-25T23:18:34.374Z,100756.93
2019-04-25T23:21:04.260Z,100755.33
2019-04-25T23:23:35.655Z,100749.84
2019-04-25T23:26:07.893Z,100752.67
2019-04-25T23:28:39.496Z,100749.22
2019-04-25T23:31:10.879Z,100748.34
2019-04-25T23:33:40.829Z,100747.48
2019-04-25T23:36:11.248Z,100743.02
2019-04-25T23:38:41.093Z,100754.27
2019-04-25T23:41:11.483Z,100743.96
2019-04-25T23:43:41.266Z,100735.00
2019-04-25T23:49:40.055Z,100740.50
2019-04-25T23:52:10.953Z,100734.72
2019-04-25T23:54:41.002Z,100732.50
2019-04-25T23:57:11.251Z,100731.84
2019-04-25T23:59:41.011Z,100729.41
